createdAt,value
2022-09-07T00:00:08.875Z,2.35
2022-09-07T00:05:10.634Z,2.60
2022-09-07T00:10:12.270Z,2.50
2022-09-07T00:15:13.866Z,2.47
2022-09-07T00:20:15.620Z,2.50
2022-09-07T00:25:17.336Z,2.25
2022-09-07T00:30:19.053Z,2.55
2022-09-07T00:35:20.839Z,2.67
2022-09-07T00:40:22.527Z,2.53
2022-09-07T00:45:24.391Z,2.50
2022-09-07T00:50:57.538Z,2.50
2022-09-07T00:55:59.916Z,2.35
2022-09-07T01:01:01.819Z,2.90
2022-09-07T01:06:13.530Z,2.70
2022-09-07T01:11:18.001Z,3.05
2022-09-07T01:16:35.848Z,3.03
2022-09-07T01:22:12.796Z,3.40
2022-09-07T01:27:38.853Z,4.05
2022-09-07T01:32:46.511Z,4.00
2022-09-07T01:37:48.064Z,4.72
2022-09-07T01:43:04.512Z,3.80
2022-09-07T01:48:09.113Z,3.10
2022-09-07T01:53:18.029Z,3.30
2022-09-07T01:58:32.768Z,4.00
2022-09-07T02:04:00.459Z,4.05
2022-09-07T02:09:12.996Z,4.25
2022-09-07T02:14:25.598Z,4.07
2022-09-07T02:19:33.777Z,4.05
2022-09-07T02:24:43.119Z,7.97
2022-09-07T02:29:44.960Z,6.70
2022-09-07T02:34:46.698Z,6.20
2022-09-07T02:39:49.429Z,3.42
2022-09-07T02:44:51.181Z,3.80
2022-09-07T02:50:14.038Z,6.75
2022-09-07T02:55:44.741Z,5.30
2022-09-07T03:01:24.021Z,6.38
2022-09-07T03:06:25.713Z,4.38
2022-09-07T03:11:29.154Z,20.17
2022-09-07T03:16:30.838Z,10.60
2022-09-07T03:21:32.666Z,8.55
2022-09-07T03:26:39.009Z,10.18
2022-09-07T03:31:40.935Z,3.70
2022-09-07T03:36:43.165Z,16.08
2022-09-07T03:41:44.800Z,5.40
2022-09-07T03:46:46.578Z,6.95
2022-09-07T03:51:48.424Z,8.70
2022-09-07T03:56:50.108Z,6.53
2022-09-07T04:01:52.065Z,6.70
2022-09-07T04:06:53.814Z,21.65
2022-09-07T04:11:55.515Z,11.20
2022-09-07T04:16:57.454Z,6.65
2022-09-07T04:21:59.208Z,10.07
2022-09-07T04:27:02.146Z,11.60
2022-09-07T04:32:03.849Z,14.00
2022-09-07T04:37:05.521Z,15.27
2022-09-07T04:42:07.253Z,21.92
2022-09-07T04:47:09.396Z,29.25
2022-09-07T04:52:11.033Z,15.02
2022-09-07T04:57:12.685Z,23.38
2022-09-07T05:02:14.428Z,21.90
2022-09-07T05:07:16.197Z,26.33
2022-09-07T05:12:17.906Z,26.13
2022-09-07T05:17:19.829Z,19.65
2022-09-07T05:22:22.411Z,26.67
2022-09-07T05:27:24.175Z,35.40
2022-09-07T05:32:25.934Z,16.38
2022-09-07T05:37:27.591Z,21.50
2022-09-07T05:42:29.241Z,21.80
2022-09-07T05:47:31.276Z,13.25
2022-09-07T05:52:33.353Z,29.85
2022-09-07T05:57:35.049Z,28.88
2022-09-07T06:02:39.809Z,23.70
2022-09-07T06:07:41.961Z,16.92
2022-09-07T06:12:48.991Z,30.45
2022-09-07T06:17:51.186Z,18.65
2022-09-07T06:22:52.931Z,23.83
2022-09-07T06:27:54.572Z,18.73
2022-09-07T06:32:56.199Z,10.25
2022-09-07T06:37:58.277Z,11.32
2022-09-07T06:42:59.985Z,13.27
2022-09-07T06:48:01.657Z,11.15
2022-09-07T06:58:25.951Z,15.82
2022-09-07T07:03:28.592Z,16.38
2022-09-07T07:08:30.850Z,10.73
2022-09-07T07:13:32.574Z,16.85
2022-09-07T07:18:35.106Z,24.23
2022-09-07T07:23:37.488Z,12.52
2022-09-07T07:34:05.381Z,8.82
2022-09-07T07:39:07.171Z,8.30
2022-09-07T07:44:09.454Z,8.50
2022-09-07T07:49:11.048Z,7.43
2022-09-07T07:54:12.692Z,8.70
2022-09-07T07:59:15.890Z,6.38
2022-09-07T08:04:18.069Z,6.28
2022-09-07T08:09:19.759Z,5.32
2022-09-07T08:14:22.294Z,4.97
2022-09-07T08:19:24.205Z,4.65
2022-09-07T08:24:26.603Z,4.13
2022-09-07T08:29:32.639Z,4.10
2022-09-07T08:34:37.317Z,4.65
2022-09-07T08:39:39.009Z,3.83
2022-09-07T08:44:51.113Z,3.60
2022-09-07T08:50:10.080Z,2.80
2022-09-07T08:55:21.716Z,2.40
2022-09-07T09:00:23.357Z,2.78
2022-09-07T09:05:28.401Z,2.30
2022-09-07T09:10:41.832Z,2.65
2022-09-07T09:16:05.506Z,2.60
2022-09-07T09:21:14.544Z,2.25
2022-09-07T09:26:26.245Z,2.22
2022-09-07T09:31:36.894Z,2.38
2022-09-07T09:36:44.640Z,2.47
2022-09-07T09:41:47.555Z,1.77
2022-09-07T09:52:29.824Z,1.80
2022-09-07T10:08:58.434Z,2.10
2022-09-07T10:14:00.614Z,2.00
2022-09-07T10:19:03.348Z,2.53
2022-09-07T10:24:05.125Z,2.08
2022-09-07T10:29:08.730Z,2.20
2022-09-07T10:34:33.583Z,2.55
2022-09-07T10:39:39.750Z,2.40
2022-09-07T10:45:05.600Z,2.53
2022-09-07T10:50:30.233Z,2.60
2022-09-07T10:55:36.623Z,2.30
2022-09-07T11:01:02.570Z,2.35
2022-09-07T11:06:23.229Z,2.38
2022-09-07T11:16:58.541Z,2.20
2022-09-07T11:22:16.180Z,2.30
2022-09-07T11:27:34.313Z,2.25
2022-09-07T11:32:38.617Z,2.00
2022-09-07T11:37:46.601Z,2.20
2022-09-07T11:42:59.878Z,2.05
2022-09-07T11:48:21.941Z,2.10
2022-09-07T11:53:29.262Z,1.77
2022-09-07T11:58:49.134Z,1.90
2022-09-07T12:04:14.628Z,1.80
2022-09-07T12:09:49.627Z,1.90
2022-09-07T12:15:19.741Z,1.95
2022-09-07T12:20:28.274Z,2.10
2022-09-07T12:25:31.041Z,2.10
2022-09-07T12:30:36.771Z,1.90
2022-09-07T12:35:43.872Z,1.80
2022-09-07T12:40:59.579Z,2.00
2022-09-07T12:46:02.288Z,2.00
2022-09-07T13:02:46.116Z,1.52
2022-09-07T13:08:09.894Z,1.50
2022-09-07T13:13:14.649Z,1.60
2022-09-07T13:18:28.737Z,1.38
2022-09-07T13:23:31.392Z,1.30
2022-09-07T13:29:03.164Z,1.42
2022-09-07T13:34:38.879Z,1.40
2022-09-07T13:39:47.487Z,1.33
2022-09-07T13:44:55.696Z,1.50
2022-09-07T13:50:22.915Z,1.33
2022-09-07T13:55:35.797Z,1.55
2022-09-07T14:00:53.041Z,1.30
2022-09-07T14:06:15.044Z,1.40
2022-09-07T14:11:23.553Z,1.50
2022-09-07T14:16:26.718Z,1.40
2022-09-07T14:21:28.488Z,1.30
2022-09-07T14:26:36.399Z,1.33
2022-09-07T14:31:46.748Z,1.40
2022-09-07T14:36:50.727Z,1.30
2022-09-07T14:41:57.690Z,1.20
2022-09-07T14:47:08.713Z,1.70
2022-09-07T14:58:33.222Z,1.40
2022-09-07T15:03:41.179Z,1.42
2022-09-07T15:08:47.276Z,1.33
2022-09-07T15:13:58.132Z,1.48
2022-09-07T15:19:16.141Z,1.42
2022-09-07T15:24:17.796Z,1.30
2022-09-07T15:29:21.129Z,1.40
2022-09-07T15:34:32.454Z,1.42
2022-09-07T15:39:36.116Z,1.25
2022-09-07T15:44:38.146Z,1.45
2022-09-07T15:49:47.466Z,1.30
2022-09-07T15:54:51.159Z,1.38
2022-09-07T15:59:53.005Z,1.30
2022-09-07T16:05:04.778Z,1.40
2022-09-07T16:10:07.468Z,1.25
2022-09-07T16:15:12.646Z,1.33
2022-09-07T16:20:14.618Z,1.40
2022-09-07T16:25:16.374Z,1.33
2022-09-07T16:30:19.138Z,1.38
2022-09-07T16:35:20.950Z,1.30
2022-09-07T16:40:25.623Z,1.40
2022-09-07T16:50:58.920Z,1.38
2022-09-07T16:56:06.075Z,1.40
2022-09-07T17:01:15.171Z,1.23
2022-09-07T17:06:18.493Z,1.23
2022-09-07T17:11:24.162Z,1.40
2022-09-07T17:16:32.422Z,1.45
2022-09-07T17:21:39.262Z,1.10
2022-09-07T17:26:42.184Z,1.25
2022-09-07T17:37:11.249Z,1.50
2022-09-07T17:42:14.129Z,1.60
2022-09-07T17:47:15.950Z,1.38
2022-09-07T17:52:17.988Z,1.48
2022-09-07T17:57:20.684Z,1.50
2022-09-07T18:02:28.616Z,1.50
2022-09-07T18:07:32.884Z,2.00
2022-09-07T18:12:35.893Z,3.38
2022-09-07T18:17:42.491Z,5.18
2022-09-07T18:22:44.854Z,3.28
2022-09-07T18:29:03.093Z,1.73
2022-09-07T18:33:09.559Z,1.70
2022-09-07T18:38:11.841Z,1.50
2022-09-07T18:43:13.546Z,1.85
2022-09-07T18:48:15.253Z,1.42
2022-09-07T18:53:17.083Z,1.70
2022-09-07T18:58:19.005Z,1.60
2022-09-07T19:03:21.466Z,1.30
2022-09-07T19:08:23.157Z,1.65
2022-09-07T19:13:24.865Z,1.75
2022-09-07T19:18:26.530Z,1.67
2022-09-07T19:23:28.193Z,1.70
2022-09-07T19:28:30.399Z,1.60
2022-09-07T19:33:37.893Z,1.67
2022-09-07T19:38:39.933Z,1.63
2022-09-07T19:43:41.683Z,1.70
2022-09-07T19:48:44.383Z,1.60
2022-09-07T19:53:47.182Z,1.73
2022-09-07T19:58:49.834Z,1.70
2022-09-07T20:04:25.989Z,1.90
2022-09-07T20:09:27.780Z,1.67
2022-09-07T20:14:29.539Z,1.60
2022-09-07T20:19:31.274Z,1.70
2022-09-07T20:24:34.547Z,1.83
2022-09-07T20:29:36.289Z,1.80
2022-09-07T20:34:38.009Z,1.70
2022-09-07T20:40:14.475Z,1.70
2022-09-07T20:45:16.347Z,1.88
2022-09-07T20:50:18.064Z,1.80
2022-09-07T20:55:20.781Z,1.83
2022-09-07T21:00:23.145Z,1.98
2022-09-07T21:05:24.916Z,1.45
2022-09-07T21:10:27.068Z,1.80
2022-09-07T21:15:29.431Z,1.77
2022-09-07T21:20:32.025Z,1.98
2022-09-07T21:25:33.764Z,2.03
2022-09-07T21:30:35.451Z,2.03
2022-09-07T21:35:37.102Z,1.90
2022-09-07T21:40:41.178Z,1.77
2022-09-07T21:45:42.889Z,1.80
2022-09-07T21:50:46.848Z,1.70
2022-09-07T21:55:59.429Z,1.95
2022-09-07T22:01:11.052Z,2.20
2022-09-07T22:06:13.501Z,2.05
2022-09-07T22:17:46.215Z,1.80
2022-09-07T22:22:48.287Z,1.95
2022-09-07T22:27:50.164Z,2.10
2022-09-07T22:32:52.005Z,1.80
2022-09-07T22:37:53.665Z,2.28
2022-09-07T22:42:55.303Z,1.90
2022-09-07T22:47:57.465Z,2.67
2022-09-07T22:52:59.257Z,1.92
2022-09-07T22:58:00.940Z,2.00
2022-09-07T23:03:03.936Z,2.13
2022-09-07T23:08:06.026Z,2.10
2022-09-07T23:13:09.150Z,1.85
2022-09-07T23:18:19.475Z,1.80
2022-09-07T23:23:21.135Z,2.38
2022-09-07T23:28:22.864Z,2.00
2022-09-07T23:33:26.289Z,1.90
2022-09-07T23:38:28.654Z,1.90
2022-09-07T23:43:31.487Z,2.20
2022-09-07T23:48:33.202Z,2.15
2022-09-07T23:53:35.125Z,2.20
2022-09-07T23:58:36.892Z,2.10
